sensor_id;sensor_type;location;lat;lon;timestamp;P1;durP1;ratioP1;P2;durP2;ratioP2
18748;SDS011;9503;53.560;10.246;2023-04-23T00:00:27;10.82;;;7.63;;
18748;SDS011;9503;53.560;10.246;2023-04-23T00:02:54;9.52;;;7.65;;
18748;SDS011;9503;53.560;10.246;2023-04-23T00:05:23;10.70;;;7.82;;
18748;SDS011;9503;53.560;10.246;2023-04-23T00:07:53;10.93;;;8.18;;
18748;SDS011;9503;53.560;10.246;2023-04-23T00:10:21;11.30;;;7.93;;
18748;SDS011;9503;53.560;10.246;2023-04-23T00:12:49;11.07;;;8.32;;
18748;SDS011;9503;53.560;10.246;2023-04-23T00:15:16;12.75;;;8.10;;
18748;SDS011;9503;53.560;10.246;2023-04-23T00:17:45;8.75;;;7.85;;
18748;SDS011;9503;53.560;10.246;2023-04-23T00:20:11;12.68;;;8.70;;
18748;SDS011;9503;53.560;10.246;2023-04-23T00:22:38;10.00;;;7.65;;
18748;SDS011;9503;53.560;10.246;2023-04-23T00:25:05;11.80;;;7.85;;
18748;SDS011;9503;53.560;10.246;2023-04-23T00:27:33;9.80;;;7.90;;
18748;SDS011;9503;53.560;10.246;2023-04-23T00:30:00;12.45;;;8.35;;
18748;SDS011;9503;53.560;10.246;2023-04-23T00:32:27;12.55;;;8.95;;
18748;SDS011;9503;53.560;10.246;2023-04-23T00:34:54;11.43;;;8.35;;
18748;SDS011;9503;53.560;10.246;2023-04-23T00:37:21;11.38;;;8.98;;
18748;SDS011;9503;53.560;10.246;2023-04-23T00:39:48;12.23;;;8.77;;
18748;SDS011;9503;53.560;10.246;2023-04-23T00:42:14;15.07;;;9.98;;
18748;SDS011;9503;53.560;10.246;2023-04-23T00:44:42;16.75;;;9.55;;
18748;SDS011;9503;53.560;10.246;2023-04-23T00:47:09;13.50;;;10.52;;
18748;SDS011;9503;53.560;10.246;2023-04-23T00:49:36;12.73;;;9.63;;
18748;SDS011;9503;53.560;10.246;2023-04-23T00:52:03;14.68;;;10.95;;
18748;SDS011;9503;53.560;10.246;2023-04-23T00:54:30;16.38;;;11.27;;
18748;SDS011;9503;53.560;10.246;2023-04-23T00:56:56;16.83;;;11.85;;
18748;SDS011;9503;53.560;10.246;2023-04-23T00:59:24;14.60;;;10.82;;
18748;SDS011;9503;53.560;10.246;2023-04-23T01:01:53;14.63;;;10.60;;
18748;SDS011;9503;53.560;10.246;2023-04-23T01:04:20;15.32;;;11.13;;
18748;SDS011;9503;53.560;10.246;2023-04-23T01:06:49;14.80;;;10.10;;
18748;SDS011;9503;53.560;10.246;2023-04-23T01:09:16;14.80;;;10.57;;
18748;SDS011;9503;53.560;10.246;2023-04-23T01:11:43;16.60;;;11.38;;
18748;SDS011;9503;53.560;10.246;2023-04-23T01:14:10;18.13;;;12.25;;
18748;SDS011;9503;53.560;10.246;2023-04-23T01:16:37;15.07;;;11.10;;
18748;SDS011;9503;53.560;10.246;2023-04-23T01:19:06;17.97;;;12.23;;
18748;SDS011;9503;53.560;10.246;2023-04-23T01:21:34;15.38;;;12.40;;
18748;SDS011;9503;53.560;10.246;2023-04-23T01:24:03;14.67;;;11.80;;
18748;SDS011;9503;53.560;10.246;2023-04-23T01:26:30;15.67;;;11.93;;
18748;SDS011;9503;53.560;10.246;2023-04-23T01:28:57;15.40;;;11.43;;
18748;SDS011;9503;53.560;10.246;2023-04-23T01:31:24;17.15;;;11.40;;
18748;SDS011;9503;53.560;10.246;2023-04-23T01:33:52;17.40;;;12.27;;
18748;SDS011;9503;53.560;10.246;2023-04-23T01:36:19;17.98;;;12.15;;
18748;SDS011;9503;53.560;10.246;2023-04-23T01:38:46;14.73;;;11.43;;
18748;SDS011;9503;53.560;10.246;2023-04-23T01:41:14;13.23;;;10.93;;
18748;SDS011;9503;53.560;10.246;2023-04-23T01:43:41;15.53;;;11.90;;
18748;SDS011;9503;53.560;10.246;2023-04-23T01:46:07;15.80;;;10.98;;
18748;SDS011;9503;53.560;10.246;2023-04-23T01:48:34;12.80;;;10.95;;
18748;SDS011;9503;53.560;10.246;2023-04-23T01:51:01;14.50;;;11.00;;
18748;SDS011;9503;53.560;10.246;2023-04-23T01:53:28;14.18;;;10.70;;
18748;SDS011;9503;53.560;10.246;2023-04-23T01:55:55;12.80;;;10.40;;
18748;SDS011;9503;53.560;10.246;2023-04-23T01:58:23;13.63;;;10.23;;
18748;SDS011;9503;53.560;10.246;2023-04-23T02:00:50;13.93;;;10.70;;
18748;SDS011;9503;53.560;10.246;2023-04-23T02:03:16;17.27;;;10.30;;
18748;SDS011;9503;53.560;10.246;2023-04-23T02:05:43;14.60;;;10.23;;
18748;SDS011;9503;53.560;10.246;2023-04-23T02:08:10;10.97;;;9.30;;
18748;SDS011;9503;53.560;10.246;2023-04-23T02:10:37;14.03;;;10.33;;
18748;SDS011;9503;53.560;10.246;2023-04-23T02:13:03;13.47;;;10.77;;
18748;SDS011;9503;53.560;10.246;2023-04-23T02:15:31;13.27;;;10.43;;
18748;SDS011;9503;53.560;10.246;2023-04-23T02:17:58;13.73;;;10.37;;
18748;SDS011;9503;53.560;10.246;2023-04-23T02:20:24;14.73;;;11.40;;
18748;SDS011;9503;53.560;10.246;2023-04-23T02:22:51;18.37;;;11.83;;
18748;SDS011;9503;53.560;10.246;2023-04-23T02:25:18;14.67;;;11.13;;
18748;SDS011;9503;53.560;10.246;2023-04-23T02:27:45;14.33;;;11.10;;
18748;SDS011;9503;53.560;10.246;2023-04-23T02:30:12;17.63;;;12.17;;
18748;SDS011;9503;53.560;10.246;2023-04-23T02:32:40;18.43;;;12.00;;
18748;SDS011;9503;53.560;10.246;2023-04-23T02:35:08;16.10;;;12.47;;
18748;SDS011;9503;53.560;10.246;2023-04-23T02:37:35;26.50;;;17.53;;
18748;SDS011;9503;53.560;10.246;2023-04-23T02:40:02;27.80;;;19.13;;
18748;SDS011;9503;53.560;10.246;2023-04-23T02:42:30;31.20;;;20.23;;
18748;SDS011;9503;53.560;10.246;2023-04-23T02:44:57;29.70;;;20.10;;
18748;SDS011;9503;53.560;10.246;2023-04-23T02:47:23;35.03;;;22.57;;
18748;SDS011;9503;53.560;10.246;2023-04-23T02:49:51;34.07;;;22.53;;
18748;SDS011;9503;53.560;10.246;2023-04-23T02:52:18;37.93;;;23.80;;
18748;SDS011;9503;53.560;10.246;2023-04-23T02:54:45;40.40;;;24.77;;
18748;SDS011;9503;53.560;10.246;2023-04-23T02:57:12;38.03;;;25.30;;
18748;SDS011;9503;53.560;10.246;2023-04-23T02:59:40;41.00;;;24.90;;
18748;SDS011;9503;53.560;10.246;2023-04-23T03:02:07;40.43;;;25.90;;
18748;SDS011;9503;53.560;10.246;2023-04-23T03:04:33;39.47;;;25.30;;
18748;SDS011;9503;53.560;10.246;2023-04-23T03:07:01;40.03;;;24.63;;
18748;SDS011;9503;53.560;10.246;2023-04-23T03:09:28;44.70;;;25.50;;
18748;SDS011;9503;53.560;10.246;2023-04-23T03:11:54;44.23;;;26.77;;
18748;SDS011;9503;53.560;10.246;2023-04-23T03:14:21;39.27;;;26.00;;
18748;SDS011;9503;53.560;10.246;2023-04-23T03:16:48;48.37;;;28.73;;
18748;SDS011;9503;53.560;10.246;2023-04-23T03:19:15;46.13;;;29.07;;
18748;SDS011;9503;53.560;10.246;2023-04-23T03:21:41;46.90;;;29.33;;
18748;SDS011;9503;53.560;10.246;2023-04-23T03:24:11;49.60;;;29.40;;
18748;SDS011;9503;53.560;10.246;2023-04-23T03:26:38;56.43;;;29.10;;
18748;SDS011;9503;53.560;10.246;2023-04-23T03:29:05;48.90;;;30.33;;
18748;SDS011;9503;53.560;10.246;2023-04-23T03:31:32;46.53;;;28.90;;
18748;SDS011;9503;53.560;10.246;2023-04-23T03:33:58;51.60;;;30.23;;
18748;SDS011;9503;53.560;10.246;2023-04-23T03:36:25;48.93;;;29.13;;
18748;SDS011;9503;53.560;10.246;2023-04-23T03:38:52;48.63;;;28.73;;
18748;SDS011;9503;53.560;10.246;2023-04-23T03:41:19;49.57;;;28.80;;
18748;SDS011;9503;53.560;10.246;2023-04-23T03:43:46;46.67;;;27.27;;
18748;SDS011;9503;53.560;10.246;2023-04-23T03:46:13;47.07;;;28.47;;
18748;SDS011;9503;53.560;10.246;2023-04-23T03:48:39;44.03;;;26.90;;
18748;SDS011;9503;53.560;10.246;2023-04-23T03:51:06;43.93;;;26.97;;
18748;SDS011;9503;53.560;10.246;2023-04-23T03:53:32;54.67;;;27.63;;
18748;SDS011;9503;53.560;10.246;2023-04-23T03:55:59;43.13;;;25.03;;
18748;SDS011;9503;53.560;10.246;2023-04-23T03:58:27;40.73;;;25.10;;
18748;SDS011;9503;53.560;10.246;2023-04-23T04:00:53;43.90;;;25.80;;
18748;SDS011;9503;53.560;10.246;2023-04-23T04:03:20;42.43;;;26.43;;
18748;SDS011;9503;53.560;10.246;2023-04-23T04:05:46;43.63;;;25.30;;
18748;SDS011;9503;53.560;10.246;2023-04-23T04:08:13;40.47;;;25.33;;
18748;SDS011;9503;53.560;10.246;2023-04-23T04:10:40;42.93;;;25.63;;
18748;SDS011;9503;53.560;10.246;2023-04-23T04:13:06;42.10;;;25.17;;
18748;SDS011;9503;53.560;10.246;2023-04-23T04:15:34;44.57;;;26.03;;
18748;SDS011;9503;53.560;10.246;2023-04-23T04:18:01;42.57;;;26.03;;
18748;SDS011;9503;53.560;10.246;2023-04-23T04:20:27;39.53;;;24.07;;
18748;SDS011;9503;53.560;10.246;2023-04-23T04:22:54;39.73;;;24.73;;
18748;SDS011;9503;53.560;10.246;2023-04-23T04:25:21;40.40;;;23.80;;
18748;SDS011;9503;53.560;10.246;2023-04-23T04:27:48;36.80;;;21.70;;
18748;SDS011;9503;53.560;10.246;2023-04-23T04:30:15;35.40;;;21.13;;
18748;SDS011;9503;53.560;10.246;2023-04-23T04:32:42;38.53;;;21.67;;
18748;SDS011;9503;53.560;10.246;2023-04-23T04:35:10;33.03;;;20.40;;
18748;SDS011;9503;53.560;10.246;2023-04-23T04:37:38;33.50;;;19.87;;
18748;SDS011;9503;53.560;10.246;2023-04-23T04:40:06;34.43;;;20.73;;
18748;SDS011;9503;53.560;10.246;2023-04-23T04:42:35;31.50;;;19.00;;
18748;SDS011;9503;53.560;10.246;2023-04-23T04:45:03;30.50;;;19.17;;
18748;SDS011;9503;53.560;10.246;2023-04-23T04:47:30;33.30;;;18.00;;
18748;SDS011;9503;53.560;10.246;2023-04-23T04:49:58;26.63;;;16.70;;
18748;SDS011;9503;53.560;10.246;2023-04-23T04:52:25;29.77;;;16.97;;
18748;SDS011;9503;53.560;10.246;2023-04-23T04:54:51;27.80;;;15.37;;
18748;SDS011;9503;53.560;10.246;2023-04-23T04:57:18;22.70;;;14.43;;
18748;SDS011;9503;53.560;10.246;2023-04-23T04:59:46;24.27;;;13.70;;
18748;SDS011;9503;53.560;10.246;2023-04-23T05:02:13;20.97;;;12.50;;
18748;SDS011;9503;53.560;10.246;2023-04-23T05:04:40;23.83;;;13.87;;
18748;SDS011;9503;53.560;10.246;2023-04-23T05:07:08;18.37;;;11.50;;
18748;SDS011;9503;53.560;10.246;2023-04-23T05:09:35;18.13;;;10.57;;
18748;SDS011;9503;53.560;10.246;2023-04-23T05:12:01;20.73;;;11.17;;
18748;SDS011;9503;53.560;10.246;2023-04-23T05:14:31;15.90;;;10.30;;
18748;SDS011;9503;53.560;10.246;2023-04-23T05:16:57;15.43;;;10.20;;
18748;SDS011;9503;53.560;10.246;2023-04-23T05:19:24;14.57;;;8.23;;
18748;SDS011;9503;53.560;10.246;2023-04-23T05:21:51;15.90;;;9.07;;
18748;SDS011;9503;53.560;10.246;2023-04-23T05:24:19;12.03;;;8.43;;
18748;SDS011;9503;53.560;10.246;2023-04-23T05:26:45;11.13;;;7.73;;
18748;SDS011;9503;53.560;10.246;2023-04-23T05:29:12;12.23;;;7.87;;
18748;SDS011;9503;53.560;10.246;2023-04-23T05:31:43;14.63;;;7.27;;
18748;SDS011;9503;53.560;10.246;2023-04-23T05:34:10;15.67;;;8.07;;
18748;SDS011;9503;53.560;10.246;2023-04-23T05:36:36;11.10;;;7.83;;
18748;SDS011;9503;53.560;10.246;2023-04-23T05:39:04;14.43;;;8.00;;
18748;SDS011;9503;53.560;10.246;2023-04-23T05:41:32;11.80;;;8.37;;
18748;SDS011;9503;53.560;10.246;2023-04-23T05:43:59;14.80;;;9.10;;
18748;SDS011;9503;53.560;10.246;2023-04-23T05:46:25;15.10;;;8.73;;
18748;SDS011;9503;53.560;10.246;2023-04-23T05:48:52;14.80;;;9.33;;
18748;SDS011;9503;53.560;10.246;2023-04-23T05:51:19;15.87;;;8.90;;
18748;SDS011;9503;53.560;10.246;2023-04-23T05:53:45;15.90;;;9.40;;
18748;SDS011;9503;53.560;10.246;2023-04-23T05:56:12;15.27;;;9.57;;
18748;SDS011;9503;53.560;10.246;2023-04-23T05:58:40;15.00;;;9.13;;
18748;SDS011;9503;53.560;10.246;2023-04-23T06:01:07;22.83;;;8.60;;
18748;SDS011;9503;53.560;10.246;2023-04-23T06:03:33;15.10;;;9.40;;
18748;SDS011;9503;53.560;10.246;2023-04-23T06:06:01;9.27;;;7.60;;
18748;SDS011;9503;53.560;10.246;2023-04-23T06:08:27;15.63;;;9.53;;
18748;SDS011;9503;53.560;10.246;2023-04-23T06:10:54;11.10;;;8.47;;
18748;SDS011;9503;53.560;10.246;2023-04-23T06:13:21;11.27;;;8.20;;
18748;SDS011;9503;53.560;10.246;2023-04-23T06:15:49;12.33;;;8.67;;
18748;SDS011;9503;53.560;10.246;2023-04-23T06:18:15;11.47;;;7.23;;
18748;SDS011;9503;53.560;10.246;2023-04-23T06:20:42;11.00;;;7.43;;
18748;SDS011;9503;53.560;10.246;2023-04-23T06:23:09;9.57;;;6.60;;
18748;SDS011;9503;53.560;10.246;2023-04-23T06:25:36;11.67;;;6.13;;
18748;SDS011;9503;53.560;10.246;2023-04-23T06:28:02;9.30;;;6.03;;
18748;SDS011;9503;53.560;10.246;2023-04-23T06:30:29;7.17;;;5.27;;
18748;SDS011;9503;53.560;10.246;2023-04-23T06:32:57;8.90;;;5.47;;
18748;SDS011;9503;53.560;10.246;2023-04-23T06:35:24;8.63;;;5.17;;
18748;SDS011;9503;53.560;10.246;2023-04-23T06:37:50;10.00;;;5.03;;
18748;SDS011;9503;53.560;10.246;2023-04-23T06:40:17;7.90;;;5.33;;
18748;SDS011;9503;53.560;10.246;2023-04-23T06:42:44;10.10;;;5.30;;
18748;SDS011;9503;53.560;10.246;2023-04-23T06:45:11;7.73;;;5.13;;
18748;SDS011;9503;53.560;10.246;2023-04-23T06:47:41;11.07;;;5.40;;
18748;SDS011;9503;53.560;10.246;2023-04-23T06:50:09;6.87;;;5.33;;
18748;SDS011;9503;53.560;10.246;2023-04-23T06:52:35;8.90;;;5.67;;
18748;SDS011;9503;53.560;10.246;2023-04-23T06:55:02;7.57;;;4.90;;
18748;SDS011;9503;53.560;10.246;2023-04-23T06:57:29;12.17;;;5.67;;
18748;SDS011;9503;53.560;10.246;2023-04-23T06:59:55;8.23;;;5.97;;
18748;SDS011;9503;53.560;10.246;2023-04-23T07:02:22;10.37;;;6.30;;
18748;SDS011;9503;53.560;10.246;2023-04-23T07:04:49;9.20;;;5.93;;
18748;SDS011;9503;53.560;10.246;2023-04-23T07:07:17;13.47;;;6.33;;
18748;SDS011;9503;53.560;10.246;2023-04-23T07:09:43;7.73;;;5.80;;
18748;SDS011;9503;53.560;10.246;2023-04-23T07:12:10;9.97;;;6.00;;
18748;SDS011;9503;53.560;10.246;2023-04-23T07:14:36;9.90;;;5.40;;
18748;SDS011;9503;53.560;10.246;2023-04-23T07:17:03;10.37;;;5.67;;
18748;SDS011;9503;53.560;10.246;2023-04-23T07:19:30;8.03;;;5.83;;
18748;SDS011;9503;53.560;10.246;2023-04-23T07:21:56;6.67;;;5.20;;
18748;SDS011;9503;53.560;10.246;2023-04-23T07:24:24;9.77;;;5.57;;
18748;SDS011;9503;53.560;10.246;2023-04-23T07:26:51;8.27;;;5.27;;
18748;SDS011;9503;53.560;10.246;2023-04-23T07:29:18;10.90;;;6.47;;
18748;SDS011;9503;53.560;10.246;2023-04-23T07:31:45;9.90;;;6.00;;
18748;SDS011;9503;53.560;10.246;2023-04-23T07:34:12;9.90;;;6.77;;
18748;SDS011;9503;53.560;10.246;2023-04-23T07:36:39;11.00;;;7.60;;
18748;SDS011;9503;53.560;10.246;2023-04-23T07:39:05;10.10;;;7.33;;
18748;SDS011;9503;53.560;10.246;2023-04-23T07:41:33;10.93;;;6.67;;
18748;SDS011;9503;53.560;10.246;2023-04-23T07:44:01;11.80;;;7.53;;
18748;SDS011;9503;53.560;10.246;2023-04-23T07:46:28;11.80;;;7.50;;
18748;SDS011;9503;53.560;10.246;2023-04-23T07:48:54;10.73;;;7.50;;
18748;SDS011;9503;53.560;10.246;2023-04-23T07:51:21;13.80;;;8.23;;
18748;SDS011;9503;53.560;10.246;2023-04-23T07:53:50;10.67;;;7.93;;
18748;SDS011;9503;53.560;10.246;2023-04-23T07:56:18;12.20;;;7.10;;
18748;SDS011;9503;53.560;10.246;2023-04-23T07:58:46;12.83;;;7.33;;
18748;SDS011;9503;53.560;10.246;2023-04-23T08:01:13;12.77;;;7.07;;
18748;SDS011;9503;53.560;10.246;2023-04-23T08:03:40;10.27;;;6.80;;
18748;SDS011;9503;53.560;10.246;2023-04-23T08:06:07;10.57;;;7.20;;
18748;SDS011;9503;53.560;10.246;2023-04-23T08:08:35;8.83;;;6.67;;
18748;SDS011;9503;53.560;10.246;2023-04-23T08:11:01;11.77;;;6.43;;
18748;SDS011;9503;53.560;10.246;2023-04-23T08:13:28;12.73;;;6.83;;
18748;SDS011;9503;53.560;10.246;2023-04-23T08:15:56;8.43;;;6.47;;
18748;SDS011;9503;53.560;10.246;2023-04-23T08:18:22;12.90;;;7.13;;
18748;SDS011;9503;53.560;10.246;2023-04-23T08:20:49;9.27;;;6.63;;
18748;SDS011;9503;53.560;10.246;2023-04-23T08:23:16;8.63;;;6.30;;
18748;SDS011;9503;53.560;10.246;2023-04-23T08:25:42;10.37;;;7.07;;
18748;SDS011;9503;53.560;10.246;2023-04-23T08:28:09;8.60;;;6.40;;
18748;SDS011;9503;53.560;10.246;2023-04-23T08:30:35;8.93;;;6.37;;
18748;SDS011;9503;53.560;10.246;2023-04-23T08:33:03;10.67;;;6.17;;
18748;SDS011;9503;53.560;10.246;2023-04-23T08:35:30;10.53;;;6.23;;
18748;SDS011;9503;53.560;10.246;2023-04-23T08:37:57;9.70;;;5.80;;
18748;SDS011;9503;53.560;10.246;2023-04-23T08:40:24;10.20;;;5.73;;
18748;SDS011;9503;53.560;10.246;2023-04-23T08:42:56;8.73;;;5.60;;
18748;SDS011;9503;53.560;10.246;2023-04-23T08:45:23;7.25;;;5.18;;
18748;SDS011;9503;53.560;10.246;2023-04-23T08:47:50;8.40;;;5.82;;
18748;SDS011;9503;53.560;10.246;2023-04-23T08:50:24;8.37;;;5.93;;
18748;SDS011;9503;53.560;10.246;2023-04-23T08:52:52;7.90;;;5.27;;
18748;SDS011;9503;53.560;10.246;2023-04-23T08:55:19;7.93;;;5.40;;
18748;SDS011;9503;53.560;10.246;2023-04-23T08:57:47;9.40;;;5.37;;
18748;SDS011;9503;53.560;10.246;2023-04-23T09:00:15;9.43;;;5.77;;
18748;SDS011;9503;53.560;10.246;2023-04-23T09:02:44;8.10;;;5.30;;
18748;SDS011;9503;53.560;10.246;2023-04-23T09:05:11;7.80;;;5.23;;
18748;SDS011;9503;53.560;10.246;2023-04-23T09:07:40;8.27;;;5.17;;
18748;SDS011;9503;53.560;10.246;2023-04-23T09:10:08;15.90;;;5.63;;
18748;SDS011;9503;53.560;10.246;2023-04-23T09:12:37;7.97;;;5.68;;
18748;SDS011;9503;53.560;10.246;2023-04-23T09:15:05;10.60;;;5.75;;
18748;SDS011;9503;53.560;10.246;2023-04-23T09:17:35;9.87;;;5.20;;
18748;SDS011;9503;53.560;10.246;2023-04-23T09:20:05;6.47;;;4.97;;
18748;SDS011;9503;53.560;10.246;2023-04-23T09:22:36;8.48;;;4.97;;
18748;SDS011;9503;53.560;10.246;2023-04-23T09:25:06;8.43;;;5.40;;
18748;SDS011;9503;53.560;10.246;2023-04-23T09:27:33;7.65;;;5.13;;
18748;SDS011;9503;53.560;10.246;2023-04-23T09:30:01;11.18;;;5.30;;
18748;SDS011;9503;53.560;10.246;2023-04-23T09:32:31;7.22;;;5.78;;
18748;SDS011;9503;53.560;10.246;2023-04-23T09:34:58;7.50;;;5.63;;
18748;SDS011;9503;53.560;10.246;2023-04-23T09:37:30;7.40;;;5.07;;
18748;SDS011;9503;53.560;10.246;2023-04-23T09:39:57;6.78;;;5.35;;
18748;SDS011;9503;53.560;10.246;2023-04-23T09:42:27;8.95;;;5.35;;
18748;SDS011;9503;53.560;10.246;2023-04-23T09:44:56;9.20;;;5.38;;
18748;SDS011;9503;53.560;10.246;2023-04-23T09:47:24;9.52;;;5.57;;
18748;SDS011;9503;53.560;10.246;2023-04-23T09:49:51;9.77;;;5.20;;
18748;SDS011;9503;53.560;10.246;2023-04-23T09:52:18;7.35;;;5.55;;
18748;SDS011;9503;53.560;10.246;2023-04-23T09:54:46;7.43;;;5.30;;
18748;SDS011;9503;53.560;10.246;2023-04-23T09:57:13;5.78;;;5.18;;
18748;SDS011;9503;53.560;10.246;2023-04-23T09:59:41;10.15;;;5.90;;
18748;SDS011;9503;53.560;10.246;2023-04-23T10:02:08;10.05;;;5.18;;
18748;SDS011;9503;53.560;10.246;2023-04-23T10:04:36;7.40;;;5.75;;
18748;SDS011;9503;53.560;10.246;2023-04-23T10:07:04;9.77;;;5.50;;
18748;SDS011;9503;53.560;10.246;2023-04-23T10:09:32;8.13;;;5.10;;
18748;SDS011;9503;53.560;10.246;2023-04-23T10:12:00;7.95;;;5.70;;
18748;SDS011;9503;53.560;10.246;2023-04-23T10:14:28;8.55;;;5.53;;
18748;SDS011;9503;53.560;10.246;2023-04-23T10:16:58;7.88;;;5.53;;
18748;SDS011;9503;53.560;10.246;2023-04-23T10:19:25;6.63;;;5.70;;
18748;SDS011;9503;53.560;10.246;2023-04-23T10:21:54;7.47;;;5.35;;
18748;SDS011;9503;53.560;10.246;2023-04-23T10:24:24;6.80;;;5.65;;
18748;SDS011;9503;53.560;10.246;2023-04-23T10:26:53;8.07;;;5.22;;
18748;SDS011;9503;53.560;10.246;2023-04-23T10:29:25;7.13;;;5.07;;
18748;SDS011;9503;53.560;10.246;2023-04-23T10:31:53;6.57;;;5.22;;
18748;SDS011;9503;53.560;10.246;2023-04-23T10:34:22;8.25;;;5.30;;
18748;SDS011;9503;53.560;10.246;2023-04-23T10:36:50;6.53;;;5.57;;
18748;SDS011;9503;53.560;10.246;2023-04-23T10:39:18;7.53;;;6.22;;
18748;SDS011;9503;53.560;10.246;2023-04-23T10:41:46;11.07;;;6.00;;
18748;SDS011;9503;53.560;10.246;2023-04-23T10:44:14;8.32;;;5.70;;
18748;SDS011;9503;53.560;10.246;2023-04-23T10:46:49;6.05;;;5.07;;
18748;SDS011;9503;53.560;10.246;2023-04-23T10:49:17;8.63;;;5.75;;
18748;SDS011;9503;53.560;10.246;2023-04-23T10:51:46;11.10;;;6.03;;
18748;SDS011;9503;53.560;10.246;2023-04-23T10:54:14;6.28;;;5.15;;
18748;SDS011;9503;53.560;10.246;2023-04-23T10:56:41;7.95;;;6.57;;
18748;SDS011;9503;53.560;10.246;2023-04-23T10:59:16;10.10;;;6.53;;
18748;SDS011;9503;53.560;10.246;2023-04-23T11:01:44;6.90;;;5.90;;
18748;SDS011;9503;53.560;10.246;2023-04-23T11:04:18;8.48;;;6.38;;
18748;SDS011;9503;53.560;10.246;2023-04-23T11:06:50;6.80;;;5.63;;
18748;SDS011;9503;53.560;10.246;2023-04-23T11:09:28;7.15;;;5.88;;
18748;SDS011;9503;53.560;10.246;2023-04-23T11:11:55;9.02;;;6.25;;
18748;SDS011;9503;53.560;10.246;2023-04-23T11:14:31;8.98;;;6.45;;
18748;SDS011;9503;53.560;10.246;2023-04-23T11:17:00;10.23;;;6.50;;
18748;SDS011;9503;53.560;10.246;2023-04-23T11:19:27;10.50;;;7.22;;
18748;SDS011;9503;53.560;10.246;2023-04-23T11:22:02;8.80;;;7.03;;
18748;SDS011;9503;53.560;10.246;2023-04-23T11:24:31;8.70;;;6.65;;
18748;SDS011;9503;53.560;10.246;2023-04-23T11:27:03;8.15;;;6.47;;
18748;SDS011;9503;53.560;10.246;2023-04-23T11:29:31;9.35;;;6.70;;
18748;SDS011;9503;53.560;10.246;2023-04-23T11:31:58;8.13;;;7.15;;
18748;SDS011;9503;53.560;10.246;2023-04-23T11:34:25;8.18;;;7.00;;
18748;SDS011;9503;53.560;10.246;2023-04-23T11:36:52;9.13;;;6.97;;
18748;SDS011;9503;53.560;10.246;2023-04-23T11:39:21;9.85;;;7.22;;
18748;SDS011;9503;53.560;10.246;2023-04-23T11:41:49;9.10;;;7.63;;
18748;SDS011;9503;53.560;10.246;2023-04-23T11:44:17;11.02;;;8.70;;
18748;SDS011;9503;53.560;10.246;2023-04-23T11:46:45;13.82;;;7.30;;
18748;SDS011;9503;53.560;10.246;2023-04-23T11:49:11;10.20;;;7.78;;
18748;SDS011;9503;53.560;10.246;2023-04-23T11:51:41;10.27;;;8.07;;
18748;SDS011;9503;53.560;10.246;2023-04-23T11:54:09;11.52;;;8.40;;
18748;SDS011;9503;53.560;10.246;2023-04-23T11:56:37;12.18;;;8.95;;
18748;SDS011;9503;53.560;10.246;2023-04-23T11:59:04;12.80;;;8.68;;
18748;SDS011;9503;53.560;10.246;2023-04-23T12:01:41;10.50;;;8.63;;
18748;SDS011;9503;53.560;10.246;2023-04-23T12:04:09;9.65;;;8.00;;
18748;SDS011;9503;53.560;10.246;2023-04-23T12:06:37;10.88;;;9.10;;
18748;SDS011;9503;53.560;10.246;2023-04-23T12:09:05;9.60;;;8.13;;
18748;SDS011;9503;53.560;10.246;2023-04-23T12:11:32;9.65;;;7.25;;
18748;SDS011;9503;53.560;10.246;2023-04-23T12:14:01;11.13;;;8.32;;
18748;SDS011;9503;53.560;10.246;2023-04-23T12:16:34;9.38;;;7.28;;
18748;SDS011;9503;53.560;10.246;2023-04-23T12:19:02;7.72;;;6.45;;
18748;SDS011;9503;53.560;10.246;2023-04-23T12:21:30;8.05;;;6.18;;
18748;SDS011;9503;53.560;10.246;2023-04-23T12:23:57;8.25;;;7.38;;
18748;SDS011;9503;53.560;10.246;2023-04-23T12:26:24;8.00;;;6.75;;
18748;SDS011;9503;53.560;10.246;2023-04-23T12:28:54;8.30;;;6.72;;
18748;SDS011;9503;53.560;10.246;2023-04-23T12:31:25;7.00;;;6.00;;
18748;SDS011;9503;53.560;10.246;2023-04-23T12:33:55;5.68;;;5.07;;
18748;SDS011;9503;53.560;10.246;2023-04-23T12:36:25;6.60;;;4.72;;
18748;SDS011;9503;53.560;10.246;2023-04-23T12:38:54;7.63;;;5.72;;
18748;SDS011;9503;53.560;10.246;2023-04-23T12:41:40;6.53;;;4.65;;
18748;SDS011;9503;53.560;10.246;2023-04-23T12:44:07;7.13;;;5.30;;
18748;SDS011;9503;53.560;10.246;2023-04-23T12:46:35;6.70;;;5.10;;
18748;SDS011;9503;53.560;10.246;2023-04-23T12:49:02;6.22;;;5.35;;
18748;SDS011;9503;53.560;10.246;2023-04-23T12:51:38;6.55;;;5.22;;
18748;SDS011;9503;53.560;10.246;2023-04-23T12:54:07;5.88;;;4.85;;
18748;SDS011;9503;53.560;10.246;2023-04-23T12:56:34;7.40;;;4.43;;
18748;SDS011;9503;53.560;10.246;2023-04-23T12:59:01;5.10;;;4.13;;
18748;SDS011;9503;53.560;10.246;2023-04-23T13:01:29;4.95;;;3.97;;
18748;SDS011;9503;53.560;10.246;2023-04-23T13:03:57;5.70;;;4.50;;
18748;SDS011;9503;53.560;10.246;2023-04-23T13:06:24;5.22;;;4.10;;
18748;SDS011;9503;53.560;10.246;2023-04-23T13:08:50;3.97;;;3.55;;
18748;SDS011;9503;53.560;10.246;2023-04-23T13:11:19;7.82;;;4.15;;
18748;SDS011;9503;53.560;10.246;2023-04-23T13:13:46;6.00;;;4.22;;
18748;SDS011;9503;53.560;10.246;2023-04-23T13:16:12;5.35;;;3.80;;
18748;SDS011;9503;53.560;10.246;2023-04-23T13:18:40;4.50;;;3.85;;
18748;SDS011;9503;53.560;10.246;2023-04-23T13:21:08;4.32;;;3.80;;
18748;SDS011;9503;53.560;10.246;2023-04-23T13:23:35;6.03;;;4.15;;
18748;SDS011;9503;53.560;10.246;2023-04-23T13:26:02;5.88;;;4.00;;
18748;SDS011;9503;53.560;10.246;2023-04-23T13:28:30;4.18;;;3.78;;
18748;SDS011;9503;53.560;10.246;2023-04-23T13:30:57;5.40;;;3.95;;
18748;SDS011;9503;53.560;10.246;2023-04-23T13:33:23;5.55;;;3.40;;
18748;SDS011;9503;53.560;10.246;2023-04-23T13:35:50;3.45;;;3.15;;
18748;SDS011;9503;53.560;10.246;2023-04-23T13:38:18;5.38;;;2.92;;
18748;SDS011;9503;53.560;10.246;2023-04-23T13:40:44;4.55;;;3.17;;
18748;SDS011;9503;53.560;10.246;2023-04-23T13:43:11;3.35;;;3.05;;
18748;SDS011;9503;53.560;10.246;2023-04-23T13:45:38;3.22;;;2.92;;
18748;SDS011;9503;53.560;10.246;2023-04-23T13:48:04;4.55;;;3.08;;
18748;SDS011;9503;53.560;10.246;2023-04-23T13:50:31;2.95;;;2.75;;
18748;SDS011;9503;53.560;10.246;2023-04-23T13:52:58;5.65;;;2.80;;
18748;SDS011;9503;53.560;10.246;2023-04-23T13:55:26;3.10;;;2.80;;
18748;SDS011;9503;53.560;10.246;2023-04-23T13:57:53;2.85;;;2.63;;
18748;SDS011;9503;53.560;10.246;2023-04-23T14:00:22;4.32;;;3.30;;
18748;SDS011;9503;53.560;10.246;2023-04-23T14:02:48;3.53;;;2.90;;
18748;SDS011;9503;53.560;10.246;2023-04-23T14:05:15;3.83;;;2.55;;
18748;SDS011;9503;53.560;10.246;2023-04-23T14:07:42;4.30;;;2.50;;
18748;SDS011;9503;53.560;10.246;2023-04-23T14:10:09;3.08;;;2.38;;
18748;SDS011;9503;53.560;10.246;2023-04-23T14:12:37;8.13;;;3.30;;
18748;SDS011;9503;53.560;10.246;2023-04-23T14:15:04;2.78;;;2.55;;
18748;SDS011;9503;53.560;10.246;2023-04-23T14:17:31;5.03;;;2.35;;
18748;SDS011;9503;53.560;10.246;2023-04-23T14:19:58;2.50;;;2.30;;
18748;SDS011;9503;53.560;10.246;2023-04-23T14:22:24;2.95;;;2.40;;
18748;SDS011;9503;53.560;10.246;2023-04-23T14:24:54;3.03;;;2.25;;
18748;SDS011;9503;53.560;10.246;2023-04-23T14:27:22;3.38;;;2.30;;
18748;SDS011;9503;53.560;10.246;2023-04-23T14:29:51;3.08;;;2.38;;
18748;SDS011;9503;53.560;10.246;2023-04-23T14:32:22;4.53;;;2.45;;
18748;SDS011;9503;53.560;10.246;2023-04-23T14:34:49;2.78;;;2.30;;
18748;SDS011;9503;53.560;10.246;2023-04-23T14:37:15;3.30;;;2.15;;